»·PEaware :: UAL215 KSFO-KLAX

UAL215 :: KSFO-KLAX

FLIGHT INFORMATION

Flight Status: Arrived
Operator:
United Airlines
More flights by this operator :: More flights under this callsign
Pilot: Nils Z. (23708)
Aircraft: BOEING 737-800
(B738)
More flights by this aircraft type
Origin: KSFO San Francisco Intl
United States
Destination: KLAX Los Angeles Intl
United States
More flights between these airports :: More routes between these airports
Route: +SSTIK4 EBAYE BURGL IRNMN2
File this flight plan on PilotEdge
Remarks: RMK / SIMBRIEF
Altitude:
(Current/Filed)
31,000ft
Speed:
(Current/Filed)
398kts
Departed: 28-Feb-19 12:35 PM
Arrived: 28-Feb-19 01:35 PM
Distance/Time
Traveled:
293nm/1:00
Distance/Time
To Go:
Arrived

Flight Plot

Page will automatically refresh every two minutes.

Flight plan parsing failed; only flown route is shown


Map Options




Map Legend


Flown Route
Filed Route
Departure Airport
Arrival Airport
Navaid (VOR, NDB)
Fix

Horizontal Profiles

Position Reports

Time Latitude Longitude Heading Altitude Ground
Speed
28-Feb-19 12:16 37.619753 -122.384005 213 19ft 0kts
28-Feb-19 12:17 37.619753 -122.384005 213 19ft 0kts
28-Feb-19 12:18 37.619753 -122.384005 213 19ft 0kts
28-Feb-19 12:19 37.619753 -122.384005 213 19ft 0kts
28-Feb-19 12:20 37.619753 -122.384005 213 19ft 0kts
28-Feb-19 12:21 37.619753 -122.384005 213 19ft 0kts
28-Feb-19 12:22 37.619753 -122.384004 213 19ft 0kts
28-Feb-19 12:23 37.619753 -122.384004 213 19ft 0kts
28-Feb-19 12:24 37.619753 -122.384004 213 19ft 0kts
28-Feb-19 12:25 37.619823 -122.383945 214 19ft 2kts
28-Feb-19 12:26 37.620336 -122.383801 151 19ft 2kts
28-Feb-19 12:27 37.620519 -122.384058 117 19ft 0kts
28-Feb-19 12:28 37.620519 -122.384058 117 19ft 0kts
28-Feb-19 12:29 37.619455 -122.381535 117 19ft 17kts
28-Feb-19 12:30 37.615814 -122.380168 207 19ft 14kts
28-Feb-19 12:31 37.612080 -122.382638 207 19ft 18kts
28-Feb-19 12:32 37.609231 -122.384752 194 19ft 4kts
28-Feb-19 12:33 37.608769 -122.382350 24 19ft 21kts
28-Feb-19 12:34 37.638388 -122.362872 28 693ft 168kts
28-Feb-19 12:35 37.679148 -122.371468 277 2089ft 214kts
28-Feb-19 12:36 37.628339 -122.412065 199 3866ft 248kts
28-Feb-19 12:37 37.562307 -122.441822 198 6595ft 252kts
28-Feb-19 12:38 37.494885 -122.459737 169 9871ft 253kts
28-Feb-19 12:39 37.432445 -122.397646 140 11952ft 314kts
28-Feb-19 12:40 37.370939 -122.313192 141 14684ft 332kts
28-Feb-19 12:41 37.306217 -122.225418 141 17358ft 348kts
28-Feb-19 12:42 37.238118 -122.133394 141 19826ft 365kts
28-Feb-19 12:43 37.167058 -122.037617 140 22100ft 380kts
28-Feb-19 12:44 37.093010 -121.938127 140 24123ft 395kts
28-Feb-19 12:45 37.015945 -121.834896 140 25903ft 412kts
28-Feb-19 12:46 36.935421 -121.727353 140 27556ft 427kts
28-Feb-19 12:47 36.852225 -121.616599 140 29194ft 439kts
28-Feb-19 12:48 36.767921 -121.504695 141 30957ft 442kts
28-Feb-19 12:49 36.684133 -121.394181 140 30996ft 476kts
28-Feb-19 12:50 36.591906 -121.272475 140 30974ft 483kts
28-Feb-19 12:51 36.498721 -121.150039 141 30966ft 480kts
28-Feb-19 12:52 36.407702 -121.028623 140 30984ft 480kts
28-Feb-19 12:53 36.320176 -120.903221 141 31009ft 478kts
28-Feb-19 12:54 36.232458 -120.778695 141 31008ft 478kts
28-Feb-19 12:55 36.145250 -120.654686 141 31011ft 478kts
28-Feb-19 12:56 36.057600 -120.529861 141 31009ft 477kts
28-Feb-19 12:57 35.970614 -120.405839 140 31013ft 477kts
28-Feb-19 12:58 35.883842 -120.282513 144 31011ft 472kts
28-Feb-19 12:59 35.782482 -120.194736 160 31012ft 450kts
28-Feb-19 13:00 35.675600 -120.114818 159 31010ft 451kts
28-Feb-19 13:01 35.566496 -120.032721 159 31011ft 468kts
28-Feb-19 13:02 35.455032 -119.948857 158 31014ft 469kts
28-Feb-19 13:03 35.343398 -119.865103 159 31027ft 469kts
28-Feb-19 13:04 35.234844 -119.774202 152 31028ft 479kts
28-Feb-19 13:05 35.133306 -119.678458 154 31010ft 425kts
28-Feb-19 13:06 35.039346 -119.591182 154 30422ft 416kts
28-Feb-19 13:07 34.951726 -119.509734 155 29377ft 386kts
28-Feb-19 13:08 34.866374 -119.432243 156 28203ft 393kts
28-Feb-19 13:09 34.777063 -119.352685 154 25954ft 411kts
28-Feb-19 13:10 34.684607 -119.271132 154 23772ft 397kts
28-Feb-19 13:11 34.597716 -119.195680 154 21785ft 376kts
28-Feb-19 13:12 34.514334 -119.122838 153 19891ft 360kts
28-Feb-19 13:13 34.434876 -119.052523 152 18062ft 346kts
28-Feb-19 13:14 34.356957 -118.985050 152 16265ft 334kts
28-Feb-19 13:15 34.282882 -118.918730 150 14655ft 322kts
28-Feb-19 13:16 34.212439 -118.854363 149 13142ft 310kts
28-Feb-19 13:17 34.145665 -118.790659 143 11709ft 302kts
28-Feb-19 13:18 34.084122 -118.722997 143 10595ft 296kts
28-Feb-19 13:20 34.030354 -118.648808 110 9289ft 302kts
28-Feb-19 13:21 34.018414 -118.548013 93 8016ft 300kts
28-Feb-19 13:22 34.009721 -118.451485 111 7528ft 269kts
28-Feb-19 13:23 33.972500 -118.379926 124 7266ft 250kts
28-Feb-19 13:24 33.934524 -118.312904 124 6798ft 247kts
28-Feb-19 13:25 33.905065 -118.239633 103 6068ft 241kts
28-Feb-19 13:26 33.898155 -118.162007 80 5552ft 233kts
28-Feb-19 13:27 33.907727 -118.084543 78 4908ft 231kts
28-Feb-19 13:28 33.932075 -118.020700 2 4628ft 222kts
28-Feb-19 13:29 33.966219 -118.073608 291 4083ft 209kts
28-Feb-19 13:30 33.962838 -118.142184 261 3547ft 209kts
28-Feb-19 13:31 33.954894 -118.210696 264 2988ft 205kts
28-Feb-19 13:32 33.948123 -118.277604 263 1855ft 185kts
28-Feb-19 13:33 33.942283 -118.334826 263 932ft 147kts
28-Feb-19 13:34 33.937519 -118.380926 263 180ft 136kts
28-Feb-19 13:35 33.935642 -118.401454 282 109ft 0kts
28-Feb-19 13:36 33.936234 -118.403756 282 109ft 16kts
28-Feb-19 13:37 33.936257 -118.408768 325 109ft 11kts
28-Feb-19 13:38 33.938724 -118.408635 81 109ft 8kts
28-Feb-19 13:39 33.939341 -118.402727 80 109ft 20kts
28-Feb-19 13:39 33.940211 -118.400660 352 109ft 8kts
28-Feb-19 13:41 33.940314 -118.400676 352 109ft 8kts
28-Feb-19 13:42 33.940314 -118.400676 352 109ft 8kts
28-Feb-19 13:42 33.940314 -118.400676 352 109ft 8kts
28-Feb-19 13:43 33.940316 -118.400677 352 109ft 8kts
28-Feb-19 13:45 33.940349 -118.400682 352 109ft 8kts
28-Feb-19 13:45 33.940471 -118.400702 352 109ft 9kts
28-Feb-19 13:46 33.940471 -118.400702 352 109ft 9kts
28-Feb-19 13:47 33.940471 -118.400702 352 109ft 9kts
28-Feb-19 13:48 33.940471 -118.400702 352 109ft 9kts

Navigation Log

Ident Type
Flight plan parsing failed, navigation log unavailable